Time;durP1;ratioP1;P1;durP2;ratioP2;P2;SDS_P1;SDS_P2;PMS_P1;PMS_P2;Temp;Humidity;BMP_temperature;BMP_pressure;BME280_temperature;BME280_humidity;BME280_pressure;Samples;Min_cycle;Max_cycle;Signal;HPM_P1;HPM_P2
2023/01/01 00:01:28;;;;;;;6.87;5.53;;;;;;;;;;4965132;28;20311;-85
2023/01/01 00:03:57;;;;;;;9.27;7.10;;;;;;;;;;4941459;28;20242;-88
2023/01/01 00:06:24;;;;;;;8.00;7.20;;;;;;;;;;4959351;28;20705;-88
2023/01/01 00:10:26;;;;;;;10.73;7.10;;;;;;;;;;4946176;28;20366;-87
2023/01/01 00:11:39;;;;;;;8.03;5.80;;;;;;;;;;4958835;28;20208;-81
2023/01/01 00:14:06;;;;;;;5.87;5.20;;;;;;;;;;4959704;28;20725;-83
2023/01/01 00:16:39;;;;;;;6.10;5.30;;;;;;;;;;4958170;28;20807;-86
2023/01/01 00:19:06;;;;;;;6.70;4.87;;;;;;;;;;4963530;28;20208;-81
2023/01/01 00:21:33;;;;;;;6.07;4.70;;;;;;;;;;4952525;28;20219;-82
2023/01/01 00:24:00;;;;;;;6.70;5.23;;;;;;;;;;4959967;28;20225;-82
2023/01/01 00:26:28;;;;;;;6.37;5.10;;;;;;;;;;4953268;28;20596;-84
2023/01/01 00:29:01;;;;;;;6.47;4.90;;;;;;;;;;4953847;28;20443;-84
2023/01/01 00:31:28;;;;;;;6.27;5.17;;;;;;;;;;4945568;28;20223;-82
2023/01/01 00:33:56;;;;;;;7.17;5.33;;;;;;;;;;4945215;28;20367;-84
2023/01/01 00:36:24;;;;;;;7.00;6.10;;;;;;;;;;4964681;28;20227;-84
2023/01/01 00:38:51;;;;;;;8.03;6.73;;;;;;;;;;4951986;28;20703;-81
2023/01/01 00:41:19;;;;;;;10.30;7.20;;;;;;;;;;4963029;28;20209;-84
2023/01/01 00:43:46;;;;;;;9.07;7.90;;;;;;;;;;4955710;28;25035;-86
2023/01/01 00:46:14;;;;;;;10.47;8.37;;;;;;;;;;4959005;28;20215;-82
2023/01/01 00:48:41;;;;;;;11.20;7.93;;;;;;;;;;4955724;28;20212;-84
2023/01/01 00:51:09;;;;;;;10.27;8.40;;;;;;;;;;4949855;28;20214;-84
2023/01/01 00:53:37;;;;;;;10.73;9.00;;;;;;;;;;4961496;28;20250;-81
2023/01/01 00:56:04;;;;;;;9.60;8.10;;;;;;;;;;4940670;28;20225;-82
2023/01/01 00:58:31;;;;;;;12.43;8.67;;;;;;;;;;4936636;28;20208;-85
2023/01/01 01:00:59;;;;;;;11.73;8.63;;;;;;;;;;4955937;28;20209;-81
2023/01/01 01:03:26;;;;;;;10.10;8.50;;;;;;;;;;4947195;28;20234;-84
2023/01/01 01:05:55;;;;;;;11.53;8.70;;;;;;;;;;4953633;28;21247;-83
2023/01/01 01:08:23;;;;;;;13.50;9.00;;;;;;;;;;4965397;28;20204;-81
2023/01/01 01:11:06;;;;;;;8.93;8.03;;;;;;;;;;4966634;28;20712;-85
2023/01/01 01:13:33;;;;;;;11.17;8.70;;;;;;;;;;4959723;28;20722;-85
2023/01/01 01:16:01;;;;;;;11.17;7.77;;;;;;;;;;4968482;28;20686;-87
2023/01/01 01:18:28;;;;;;;8.70;7.33;;;;;;;;;;4983480;28;20270;-86
2023/01/01 01:20:55;;;;;;;9.10;7.10;;;;;;;;;;4969818;28;20218;-86
2023/01/01 01:23:22;;;;;;;8.27;6.80;;;;;;;;;;4968333;28;20224;-83
2023/01/01 01:25:49;;;;;;;10.87;7.80;;;;;;;;;;4965611;28;20232;-82
2023/01/01 01:28:16;;;;;;;9.27;7.20;;;;;;;;;;4952992;28;20212;-86
2023/01/01 01:30:44;;;;;;;10.53;7.67;;;;;;;;;;4955512;28;20204;-81
2023/01/01 01:33:11;;;;;;;11.37;8.60;;;;;;;;;;4947912;28;20936;-85
2023/01/01 01:35:38;;;;;;;11.20;8.27;;;;;;;;;;4954212;28;20529;-88
2023/01/01 01:38:06;;;;;;;10.57;8.10;;;;;;;;;;4956334;28;20291;-82
2023/01/01 01:40:33;;;;;;;11.97;8.53;;;;;;;;;;4955568;28;20699;-88
2023/01/01 01:43:00;;;;;;;9.90;8.40;;;;;;;;;;4959898;28;20333;-82
2023/01/01 01:45:27;;;;;;;8.90;7.73;;;;;;;;;;4964409;28;20220;-87
2023/01/01 01:48:00;;;;;;;8.70;7.23;;;;;;;;;;4959896;28;20235;-86
2023/01/01 01:50:27;;;;;;;9.00;6.77;;;;;;;;;;4945323;28;20212;-81
2023/01/01 01:53:00;;;;;;;10.23;7.60;;;;;;;;;;4958201;28;20270;-84
2023/01/01 01:55:32;;;;;;;7.83;6.57;;;;;;;;;;4940155;28;20208;-83
2023/01/01 01:57:59;;;;;;;9.40;6.93;;;;;;;;;;4956132;28;20734;-88
2023/01/01 02:00:26;;;;;;;8.53;7.03;;;;;;;;;;4952979;28;20605;-82
2023/01/01 02:03:03;;;;;;;9.53;7.10;;;;;;;;;;4954216;28;21387;-84
2023/01/01 02:05:31;;;;;;;8.30;6.37;;;;;;;;;;4936041;28;21398;-82
2023/01/01 02:07:58;;;;;;;7.73;6.73;;;;;;;;;;4959854;28;20208;-83
2023/01/01 02:10:27;;;;;;;7.27;5.60;;;;;;;;;;4951183;28;20208;-81
2023/01/01 02:12:54;;;;;;;7.20;6.23;;;;;;;;;;4955174;28;20227;-85
2023/01/01 02:15:23;;;;;;;7.37;6.03;;;;;;;;;;4950359;28;20211;-83
2023/01/01 02:18:06;;;;;;;8.47;6.00;;;;;;;;;;4942268;28;20928;-82
2023/01/01 02:20:36;;;;;;;11.90;6.47;;;;;;;;;;4955496;28;20212;-83
2023/01/01 02:23:16;;;;;;;8.30;6.60;;;;;;;;;;4959700;28;20789;-82
2023/01/01 02:25:49;;;;;;;10.03;7.23;;;;;;;;;;4961266;28;20208;-86
2023/01/01 02:28:35;;;;;;;9.20;6.67;;;;;;;;;;4951777;28;20712;-86
2023/01/01 02:31:03;;;;;;;7.43;6.60;;;;;;;;;;4954487;28;20219;-81
2023/01/01 02:33:31;;;;;;;9.87;6.70;;;;;;;;;;4942580;28;20224;-82
2023/01/01 02:36:00;;;;;;;9.43;6.10;;;;;;;;;;4966320;28;20209;-88
2023/01/01 02:38:34;;;;;;;9.00;6.50;;;;;;;;;;4957747;28;20204;-81
2023/01/01 02:41:17;;;;;;;9.30;6.67;;;;;;;;;;4959533;28;20220;-85
2023/01/01 02:43:45;;;;;;;9.03;6.93;;;;;;;;;;4959797;28;20239;-86
2023/01/01 02:46:12;;;;;;;9.80;6.87;;;;;;;;;;4953128;28;20211;-81
2023/01/01 02:48:50;;;;;;;10.20;6.60;;;;;;;;;;4953403;28;20291;-86
2023/01/01 02:51:17;;;;;;;8.70;7.23;;;;;;;;;;4948738;28;20240;-87
2023/01/01 02:53:52;;;;;;;11.00;7.00;;;;;;;;;;4958443;28;20228;-87
2023/01/01 02:56:19;;;;;;;12.00;7.87;;;;;;;;;;4950572;28;20230;-83
2023/01/01 03:02:02;;;;;;;10.53;8.40;;;;;;;;;;4957238;28;20212;-82
2023/01/01 03:04:35;;;;;;;11.50;8.23;;;;;;;;;;4955609;28;20298;-83
2023/01/01 03:07:13;;;;;;;12.30;8.63;;;;;;;;;;4952576;28;20342;-85
2023/01/01 03:09:56;;;;;;;10.97;8.50;;;;;;;;;;4953831;28;20239;-82
2023/01/01 03:12:38;;;;;;;11.10;8.83;;;;;;;;;;4957496;28;20291;-87
2023/01/01 03:15:09;;;;;;;12.90;9.90;;;;;;;;;;4976436;28;20204;-87
2023/01/01 03:17:45;;;;;;;12.53;10.53;;;;;;;;;;4978459;28;20238;-88
2023/01/01 03:20:16;;;;;;;14.67;10.30;;;;;;;;;;5001030;28;20210;-84
2023/01/01 03:22:44;;;;;;;13.97;9.63;;;;;;;;;;4992568;28;20228;-83
2023/01/01 03:25:10;;;;;;;14.07;10.20;;;;;;;;;;4981514;28;20231;-82
2023/01/01 03:27:41;;;;;;;14.80;10.00;;;;;;;;;;4974336;28;20236;-83
2023/01/01 03:30:09;;;;;;;13.47;9.27;;;;;;;;;;4957635;28;20420;-86
2023/01/01 03:35:34;;;;;;;12.80;9.33;;;;;;;;;;4989377;28;20306;-82
2023/01/01 03:38:02;;;;;;;13.33;9.33;;;;;;;;;;4985995;28;20700;-84
2023/01/01 03:40:31;;;;;;;13.13;10.00;;;;;;;;;;4967334;28;20215;-87
2023/01/01 03:43:08;;;;;;;12.57;9.90;;;;;;;;;;4978062;28;20221;-88
2023/01/01 03:45:38;;;;;;;12.30;9.70;;;;;;;;;;4970439;28;20215;-81
2023/01/01 03:48:05;;;;;;;13.80;9.90;;;;;;;;;;4975507;28;20220;-82
2023/01/01 03:50:41;;;;;;;13.60;10.03;;;;;;;;;;4963977;28;20299;-87
2023/01/01 03:53:32;;;;;;;12.53;9.90;;;;;;;;;;4955403;28;20662;-82
2023/01/01 03:56:21;;;;;;;12.93;10.00;;;;;;;;;;4949230;28;20204;-82
2023/01/01 03:59:15;;;;;;;13.60;10.50;;;;;;;;;;4966218;28;20206;-88
2023/01/01 04:01:48;;;;;;;14.67;10.73;;;;;;;;;;4957510;28;20398;-87
2023/01/01 04:04:16;;;;;;;14.00;10.50;;;;;;;;;;4952796;28;20595;-88
2023/01/01 04:06:43;;;;;;;13.80;10.20;;;;;;;;;;4959151;28;20296;-82
2023/01/01 04:09:16;;;;;;;13.63;10.17;;;;;;;;;;4962099;28;20751;-84
2023/01/01 04:12:00;;;;;;;15.10;10.37;;;;;;;;;;4944342;28;20218;-81
2023/01/01 04:14:28;;;;;;;13.60;10.30;;;;;;;;;;4958402;28;22002;-82
2023/01/01 04:16:56;;;;;;;12.77;10.07;;;;;;;;;;4949225;28;20869;-85
2023/01/01 04:19:23;;;;;;;15.27;10.73;;;;;;;;;;4941338;28;21703;-85
2023/01/01 04:21:50;;;;;;;13.70;9.57;;;;;;;;;;4953846;28;20208;-83
2023/01/01 04:24:18;;;;;;;12.33;9.60;;;;;;;;;;4956877;28;20333;-82
2023/01/01 04:26:45;;;;;;;12.23;9.47;;;;;;;;;;4943800;28;20683;-84
2023/01/01 04:29:12;;;;;;;14.77;9.53;;;;;;;;;;4958432;28;20730;-85
2023/01/01 04:31:39;;;;;;;13.50;9.40;;;;;;;;;;4943593;28;20346;-82
2023/01/01 04:34:07;;;;;;;14.00;9.57;;;;;;;;;;4961570;28;20541;-82
2023/01/01 04:36:34;;;;;;;13.40;9.77;;;;;;;;;;4948135;28;20327;-83
2023/01/01 04:39:01;;;;;;;14.73;9.53;;;;;;;;;;4953835;28;20204;-82
2023/01/01 04:41:29;;;;;;;11.43;9.30;;;;;;;;;;4954320;28;20796;-86
2023/01/01 04:43:56;;;;;;;13.50;9.33;;;;;;;;;;4951412;28;20224;-83
2023/01/01 04:46:24;;;;;;;14.03;9.60;;;;;;;;;;4931573;28;20210;-86
2023/01/01 04:48:51;;;;;;;14.83;9.07;;;;;;;;;;4955721;28;20239;-82
2023/01/01 04:51:19;;;;;;;11.23;8.57;;;;;;;;;;4962961;28;20866;-88
2023/01/01 04:53:47;;;;;;;11.37;9.03;;;;;;;;;;4953574;28;20307;-83
2023/01/01 04:56:15;;;;;;;12.27;8.80;;;;;;;;;;4947583;28;20204;-85
2023/01/01 04:58:43;;;;;;;11.67;9.10;;;;;;;;;;4960030;28;20560;-84
2023/01/01 05:01:29;;;;;;;11.00;8.03;;;;;;;;;;4956979;28;20587;-87
2023/01/01 05:03:56;;;;;;;10.50;9.00;;;;;;;;;;4939497;28;25293;-82
2023/01/01 05:06:24;;;;;;;10.67;8.60;;;;;;;;;;4961229;28;20835;-85
2023/01/01 05:08:53;;;;;;;12.77;8.37;;;;;;;;;;4965280;28;20208;-84
2023/01/01 05:11:22;;;;;;;10.90;8.13;;;;;;;;;;4955787;28;20685;-85
2023/01/01 05:13:52;;;;;;;10.43;8.33;;;;;;;;;;4985220;28;20221;-85
2023/01/01 05:16:20;;;;;;;11.53;7.97;;;;;;;;;;4986294;28;20286;-86
2023/01/01 05:18:48;;;;;;;11.07;8.30;;;;;;;;;;4975397;28;20232;-86
2023/01/01 05:21:19;;;;;;;10.00;8.00;;;;;;;;;;4989796;28;20663;-87
2023/01/01 05:23:46;;;;;;;10.30;8.03;;;;;;;;;;4971600;28;20247;-85
2023/01/01 05:26:18;;;;;;;10.83;8.30;;;;;;;;;;4996048;28;20215;-85
2023/01/01 05:28:46;;;;;;;10.70;7.70;;;;;;;;;;4971239;28;20200;-83
2023/01/01 05:31:16;;;;;;;8.77;7.70;;;;;;;;;;4959881;28;20232;-84
2023/01/01 05:33:44;;;;;;;9.50;7.47;;;;;;;;;;4951480;28;20237;-86
2023/01/01 05:36:15;;;;;;;10.90;7.33;;;;;;;;;;4968839;28;20296;-84
2023/01/01 05:38:44;;;;;;;9.57;6.80;;;;;;;;;;4962769;28;20482;-86
2023/01/01 05:41:12;;;;;;;9.50;7.03;;;;;;;;;;4971203;28;20205;-82
2023/01/01 05:43:39;;;;;;;11.17;6.67;;;;;;;;;;4964901;28;20228;-83
2023/01/01 05:46:17;;;;;;;9.23;6.90;;;;;;;;;;4971108;28;20289;-83
2023/01/01 05:48:45;;;;;;;9.33;7.37;;;;;;;;;;4969731;28;20718;-86
2023/01/01 05:51:16;;;;;;;9.47;6.93;;;;;;;;;;4950579;28;20713;-87
2023/01/01 05:53:44;;;;;;;12.07;7.10;;;;;;;;;;4968062;28;20247;-81
2023/01/01 05:56:12;;;;;;;11.47;7.40;;;;;;;;;;4950910;28;20267;-84
2023/01/01 05:58:40;;;;;;;9.60;7.10;;;;;;;;;;4950123;28;20240;-85
2023/01/01 06:01:08;;;;;;;9.87;7.03;;;;;;;;;;4963032;28;20208;-85
2023/01/01 06:03:36;;;;;;;9.37;6.63;;;;;;;;;;4968370;28;20744;-83
2023/01/01 06:06:07;;;;;;;10.57;6.80;;;;;;;;;;4962972;28;20219;-86
2023/01/01 06:08:34;;;;;;;10.27;7.40;;;;;;;;;;4970414;28;20239;-83
2023/01/01 06:11:03;;;;;;;10.63;6.73;;;;;;;;;;4967092;28;20216;-83
2023/01/01 06:13:30;;;;;;;9.10;6.87;;;;;;;;;;4944795;28;20322;-83
2023/01/01 06:15:58;;;;;;;9.80;7.10;;;;;;;;;;4964871;28;20297;-84
2023/01/01 06:18:28;;;;;;;9.00;5.90;;;;;;;;;;4958656;28;20231;-83
2023/01/01 06:20:55;;;;;;;8.13;6.23;;;;;;;;;;4953569;28;20299;-86
2023/01/01 06:23:22;;;;;;;9.97;7.17;;;;;;;;;;4946128;28;20239;-86
2023/01/01 06:25:50;;;;;;;9.60;6.37;;;;;;;;;;4951440;28;20212;-83
2023/01/01 06:28:17;;;;;;;8.60;6.37;;;;;;;;;;4966783;28;20581;-84
2023/01/01 06:30:44;;;;;;;7.37;5.73;;;;;;;;;;4959954;28;20341;-83
2023/01/01 06:33:11;;;;;;;12.13;7.17;;;;;;;;;;4949552;28;20611;-84
2023/01/01 06:35:38;;;;;;;9.03;6.20;;;;;;;;;;4960725;28;20218;-82
2023/01/01 06:38:05;;;;;;;9.60;5.97;;;;;;;;;;4962914;28;20333;-85
2023/01/01 06:40:33;;;;;;;7.60;5.97;;;;;;;;;;4955159;28;20208;-82
2023/01/01 06:43:00;;;;;;;6.83;5.50;;;;;;;;;;4953908;28;20315;-83
2023/01/01 06:45:27;;;;;;;7.53;6.00;;;;;;;;;;4950180;28;20208;-81
2023/01/01 06:47:56;;;;;;;9.00;6.10;;;;;;;;;;4931531;28;20220;-82
2023/01/01 06:50:23;;;;;;;8.67;6.10;;;;;;;;;;4950254;28;20223;-81
2023/01/01 06:52:50;;;;;;;7.97;5.80;;;;;;;;;;4932501;28;20404;-86
2023/01/01 06:55:18;;;;;;;6.63;5.67;;;;;;;;;;4946215;28;20515;-82
2023/01/01 06:57:45;;;;;;;8.87;5.73;;;;;;;;;;4950396;28;21458;-85
2023/01/01 07:00:12;;;;;;;6.90;5.67;;;;;;;;;;4936625;28;20211;-80
2023/01/01 07:02:40;;;;;;;9.23;5.70;;;;;;;;;;4931391;28;20511;-83
2023/01/01 07:05:07;;;;;;;7.93;5.73;;;;;;;;;;4920173;28;20864;-84
2023/01/01 07:07:35;;;;;;;7.87;5.90;;;;;;;;;;4929775;28;20211;-84
2023/01/01 07:10:02;;;;;;;8.23;5.87;;;;;;;;;;4942305;28;20304;-85
2023/01/01 07:12:29;;;;;;;9.30;5.50;;;;;;;;;;4968912;28;20227;-83
2023/01/01 07:14:56;;;;;;;8.10;5.47;;;;;;;;;;4975138;28;20233;-86
2023/01/01 07:17:23;;;;;;;7.90;5.60;;;;;;;;;;4978713;28;20231;-82
2023/01/01 07:19:51;;;;;;;6.47;5.23;;;;;;;;;;4978111;28;20210;-84
2023/01/01 07:22:18;;;;;;;6.93;5.47;;;;;;;;;;4967203;28;20976;-85
2023/01/01 07:24:47;;;;;;;6.50;5.40;;;;;;;;;;4969728;28;20242;-84
2023/01/01 07:27:14;;;;;;;7.23;5.37;;;;;;;;;;4974839;28;20204;-84
2023/01/01 07:29:42;;;;;;;6.93;5.33;;;;;;;;;;4952873;28;20244;-81
2023/01/01 07:32:15;;;;;;;6.83;5.40;;;;;;;;;;4976512;28;20292;-84
2023/01/01 07:34:42;;;;;;;8.20;5.43;;;;;;;;;;4934576;28;20683;-84
2023/01/01 07:37:16;;;;;;;9.50;6.20;;;;;;;;;;4941093;28;20213;-83
2023/01/01 07:39:44;;;;;;;7.03;5.43;;;;;;;;;;4974599;28;20956;-84
2023/01/01 07:42:11;;;;;;;7.07;5.60;;;;;;;;;;4952977;28;20210;-83
2023/01/01 07:44:38;;;;;;;6.40;5.10;;;;;;;;;;4982022;28;20546;-87
2023/01/01 07:47:08;;;;;;;5.67;5.00;;;;;;;;;;4976379;28;20212;-84
2023/01/01 07:49:35;;;;;;;8.93;5.50;;;;;;;;;;4969700;28;20762;-85
2023/01/01 07:52:03;;;;;;;8.57;5.53;;;;;;;;;;4968090;28;20228;-85
2023/01/01 07:54:30;;;;;;;7.00;5.50;;;;;;;;;;4959512;28;20677;-85
2023/01/01 07:56:57;;;;;;;7.53;5.20;;;;;;;;;;4958005;28;20295;-84
2023/01/01 07:59:24;;;;;;;8.10;5.50;;;;;;;;;;4944133;28;20266;-85
2023/01/01 08:01:52;;;;;;;7.43;5.30;;;;;;;;;;4960018;28;20219;-85
2023/01/01 08:04:19;;;;;;;7.37;5.43;;;;;;;;;;4958423;28;20315;-83
2023/01/01 08:06:46;;;;;;;6.47;5.30;;;;;;;;;;4961352;28;20200;-85
2023/01/01 08:09:13;;;;;;;7.10;5.20;;;;;;;;;;4945281;28;20232;-83
2023/01/01 08:11:43;;;;;;;7.33;4.77;;;;;;;;;;4958103;28;20228;-87
2023/01/01 08:14:10;;;;;;;8.87;5.37;;;;;;;;;;4959037;28;20603;-86
2023/01/01 08:16:37;;;;;;;7.57;4.90;;;;;;;;;;4962851;28;20219;-86
2023/01/01 08:19:05;;;;;;;8.20;5.20;;;;;;;;;;4944837;28;20333;-84
2023/01/01 08:21:32;;;;;;;8.23;5.33;;;;;;;;;;4977971;28;20645;-86
2023/01/01 08:23:59;;;;;;;6.57;5.27;;;;;;;;;;4972066;28;20636;-86
2023/01/01 08:26:29;;;;;;;6.87;5.17;;;;;;;;;;4977955;28;20208;-85
2023/01/01 08:28:56;;;;;;;6.30;5.13;;;;;;;;;;4978004;28;20461;-86
2023/01/01 08:31:24;;;;;;;6.33;5.13;;;;;;;;;;4984904;28;20315;-85
2023/01/01 08:33:52;;;;;;;7.10;5.27;;;;;;;;;;4978013;28;20334;-85
2023/01/01 08:36:19;;;;;;;6.93;5.57;;;;;;;;;;4983165;28;20304;-86
2023/01/01 08:38:47;;;;;;;6.87;5.30;;;;;;;;;;4967152;28;20229;-84
2023/01/01 08:41:14;;;;;;;7.40;4.83;;;;;;;;;;4972550;28;20212;-83
2023/01/01 08:43:41;;;;;;;6.40;4.27;;;;;;;;;;4969796;28;20224;-86
2023/01/01 08:46:11;;;;;;;5.77;4.90;;;;;;;;;;4959668;28;20210;-84
2023/01/01 08:48:44;;;;;;;6.80;4.93;;;;;;;;;;4970945;28;20754;-87
2023/01/01 08:51:11;;;;;;;6.83;4.93;;;;;;;;;;4971325;28;20544;-87
2023/01/01 08:53:38;;;;;;;7.90;4.80;;;;;;;;;;4944262;28;20774;-84
2023/01/01 08:56:14;;;;;;;6.10;4.37;;;;;;;;;;4949721;28;20282;-87
2023/01/01 08:58:42;;;;;;;8.37;5.27;;;;;;;;;;4936539;28;20351;-85
2023/01/01 09:01:10;;;;;;;5.40;4.57;;;;;;;;;;4937291;28;20243;-86
2023/01/01 09:03:38;;;;;;;5.83;4.50;;;;;;;;;;4951859;28;20232;-86
2023/01/01 09:06:05;;;;;;;8.10;4.70;;;;;;;;;;4945574;28;20237;-85
2023/01/01 09:08:33;;;;;;;5.80;4.40;;;;;;;;;;4938449;28;20613;-86
2023/01/01 09:11:01;;;;;;;7.50;4.87;;;;;;;;;;4955601;28;20272;-87
2023/01/01 09:13:28;;;;;;;5.73;4.20;;;;;;;;;;4971240;28;20268;-86
2023/01/01 09:15:56;;;;;;;5.47;4.20;;;;;;;;;;4978243;28;20272;-83
2023/01/01 09:18:23;;;;;;;6.17;4.60;;;;;;;;;;4960253;28;20669;-87
2023/01/01 09:20:51;;;;;;;4.70;4.30;;;;;;;;;;4945770;28;20216;-84
2023/01/01 09:23:21;;;;;;;5.90;4.30;;;;;;;;;;4933728;28;20801;-84
2023/01/01 09:25:55;;;;;;;6.07;4.20;;;;;;;;;;4979548;28;21847;-88
2023/01/01 09:28:22;;;;;;;6.47;4.33;;;;;;;;;;4974614;28;21765;-84
2023/01/01 09:30:52;;;;;;;4.57;4.13;;;;;;;;;;4955689;28;20204;-88
2023/01/01 09:33:19;;;;;;;5.77;4.43;;;;;;;;;;4952447;28;20239;-87
2023/01/01 09:35:46;;;;;;;4.43;3.93;;;;;;;;;;4966479;28;20227;-88
2023/01/01 09:38:14;;;;;;;6.63;3.97;;;;;;;;;;4976173;28;20276;-91
2023/01/01 09:40:50;;;;;;;4.20;3.80;;;;;;;;;;4955911;28;20226;-87
2023/01/01 09:43:17;;;;;;;5.47;3.67;;;;;;;;;;4963009;28;21172;-87
2023/01/01 09:45:54;;;;;;;6.33;4.30;;;;;;;;;;4951799;28;20307;-88
2023/01/01 09:48:23;;;;;;;7.13;4.90;;;;;;;;;;4973046;28;20218;-91
2023/01/01 09:50:50;;;;;;;19.77;13.57;;;;;;;;;;4961746;28;20209;-87
2023/01/01 09:53:31;;;;;;;36.90;25.07;;;;;;;;;;4978058;28;20243;-86
2023/01/01 09:56:00;;;;;;;6.43;5.33;;;;;;;;;;4952953;28;20251;-88
2023/01/01 09:58:35;;;;;;;5.10;3.70;;;;;;;;;;4977914;28;20318;-88
2023/01/01 10:01:14;;;;;;;4.43;4.03;;;;;;;;;;4973542;28;21677;-87
2023/01/01 10:03:42;;;;;;;5.40;3.77;;;;;;;;;;4960462;28;20239;-86
2023/01/01 10:06:15;;;;;;;4.37;3.63;;;;;;;;;;4965265;28;20299;-86
2023/01/01 10:09:05;;;;;;;5.90;4.00;;;;;;;;;;4952428;28;20209;-87
2023/01/01 10:11:36;;;;;;;4.67;3.70;;;;;;;;;;4960403;28;20360;-85
2023/01/01 10:14:11;;;;;;;7.63;3.53;;;;;;;;;;4962373;28;20296;-86
2023/01/01 10:17:15;;;;;;;4.63;3.50;;;;;;;;;;4958601;28;20212;-85
2023/01/01 10:19:56;;;;;;;4.63;3.97;;;;;;;;;;4938111;28;20310;-89
2023/01/01 10:22:28;;;;;;;4.00;3.53;;;;;;;;;;4970058;28;20212;-83
2023/01/01 10:25:01;;;;;;;4.17;3.60;;;;;;;;;;4939767;28;20204;-84
2023/01/01 10:28:01;;;;;;;4.55;4.07;;;;;;;;;;4940743;28;20300;-86
2023/01/01 10:30:34;;;;;;;6.13;3.63;;;;;;;;;;4956455;28;20234;-86
2023/01/01 10:33:12;;;;;;;4.20;3.80;;;;;;;;;;4942390;28;20234;-81
2023/01/01 10:35:40;;;;;;;4.40;3.90;;;;;;;;;;4945495;28;20611;-82
2023/01/01 10:38:07;;;;;;;4.13;3.45;;;;;;;;;;4949298;28;20433;-83
2023/01/01 10:40:35;;;;;;;4.90;3.70;;;;;;;;;;4961128;28;20195;-82
2023/01/01 10:43:03;;;;;;;18.95;13.45;;;;;;;;;;4969426;28;20220;-80
2023/01/01 10:45:33;;;;;;;11.88;8.38;;;;;;;;;;4971352;28;20208;-87
2023/01/01 10:48:15;;;;;;;7.25;4.72;;;;;;;;;;4947107;28;20208;-81
2023/01/01 10:50:48;;;;;;;8.52;6.93;;;;;;;;;;4965025;28;20213;-84
2023/01/01 10:53:28;;;;;;;4.32;3.13;;;;;;;;;;4978888;28;20246;-86
2023/01/01 10:56:03;;;;;;;3.92;3.42;;;;;;;;;;4981926;28;20202;-83
2023/01/01 10:58:39;;;;;;;3.58;3.20;;;;;;;;;;4978854;28;20727;-87
2023/01/01 11:01:08;;;;;;;5.18;3.25;;;;;;;;;;4977250;28;20231;-88
2023/01/01 11:03:35;;;;;;;4.95;2.85;;;;;;;;;;4953056;28;20263;-83
2023/01/01 11:06:05;;;;;;;3.70;2.80;;;;;;;;;;4959078;28;20619;-87
2023/01/01 11:08:34;;;;;;;5.10;2.92;;;;;;;;;;4957377;28;20212;-85
2023/01/01 11:11:02;;;;;;;4.35;3.00;;;;;;;;;;4958348;28;20212;-84
2023/01/01 11:13:30;;;;;;;4.93;2.63;;;;;;;;;;4957905;28;20435;-87
2023/01/01 11:15:58;;;;;;;4.07;2.80;;;;;;;;;;4952854;28;20208;-84
2023/01/01 11:18:27;;;;;;;3.70;2.75;;;;;;;;;;4968920;28;20226;-81
2023/01/01 11:20:54;;;;;;;3.03;2.53;;;;;;;;;;4958253;28;20204;-84
2023/01/01 11:23:29;;;;;;;6.28;3.05;;;;;;;;;;4962038;28;20239;-83
2023/01/01 11:26:11;;;;;;;2.80;2.60;;;;;;;;;;4939252;28;20212;-83
2023/01/01 11:28:39;;;;;;;6.40;3.33;;;;;;;;;;4927095;28;20565;-84
2023/01/01 11:31:14;;;;;;;2.72;2.53;;;;;;;;;;4931540;28;20593;-86
2023/01/01 11:33:45;;;;;;;2.92;2.35;;;;;;;;;;4956117;28;20426;-83
2023/01/01 11:36:19;;;;;;;3.55;3.15;;;;;;;;;;4960069;28;20665;-85
2023/01/01 11:38:48;;;;;;;4.55;3.15;;;;;;;;;;4970332;28;20305;-86
2023/01/01 11:41:15;;;;;;;5.78;4.47;;;;;;;;;;4972205;28;20760;-84
2023/01/01 11:43:46;;;;;;;3.55;2.92;;;;;;;;;;4981871;28;20706;-84
2023/01/01 11:46:17;;;;;;;2.85;2.42;;;;;;;;;;4956067;28;20203;-84
2023/01/01 11:48:45;;;;;;;4.38;2.85;;;;;;;;;;4967091;28;20329;-86
2023/01/01 11:51:27;;;;;;;4.15;2.70;;;;;;;;;;4955675;28;20210;-85
2023/01/01 11:54:09;;;;;;;3.58;2.55;;;;;;;;;;4956652;28;20262;-84
2023/01/01 11:56:37;;;;;;;5.10;2.40;;;;;;;;;;4923237;28;20216;-85
2023/01/01 11:59:16;;;;;;;3.47;2.47;;;;;;;;;;4949621;28;20232;-83
2023/01/01 12:01:52;;;;;;;4.65;2.72;;;;;;;;;;4955544;28;21760;-85
2023/01/01 12:04:21;;;;;;;5.32;4.47;;;;;;;;;;4951946;28;20235;-83
2023/01/01 12:06:51;;;;;;;2.88;2.38;;;;;;;;;;4958111;28;20227;-84
2023/01/01 12:09:24;;;;;;;7.43;2.22;;;;;;;;;;4949273;28;20221;-85
2023/01/01 12:12:10;;;;;;;4.43;2.50;;;;;;;;;;4944116;28;20215;-84
2023/01/01 12:14:43;;;;;;;3.95;2.42;;;;;;;;;;4946978;28;20218;-82
2023/01/01 12:17:46;;;;;;;5.50;2.47;;;;;;;;;;4946423;28;20955;-82
2023/01/01 12:20:26;;;;;;;2.40;2.20;;;;;;;;;;4882231;29;20251;-85
2023/01/01 12:22:57;;;;;;;2.63;2.30;;;;;;;;;;4921335;28;20230;-84
2023/01/01 12:25:27;;;;;;;3.45;2.30;;;;;;;;;;4950908;28;20204;-81
2023/01/01 12:27:57;;;;;;;6.55;3.20;;;;;;;;;;4951367;28;20755;-84
2023/01/01 12:30:27;;;;;;;2.80;2.55;;;;;;;;;;4926145;28;20213;-85
2023/01/01 12:32:54;;;;;;;4.60;2.42;;;;;;;;;;4950716;28;21367;-86
2023/01/01 12:35:24;;;;;;;4.25;2.40;;;;;;;;;;4952695;28;20273;-83
2023/01/01 12:37:55;;;;;;;6.50;4.15;;;;;;;;;;4943639;28;20209;-84
2023/01/01 12:40:37;;;;;;;3.47;2.28;;;;;;;;;;4955772;28;20465;-84
2023/01/01 12:43:12;;;;;;;4.85;2.50;;;;;;;;;;4941864;28;20291;-81
2023/01/01 12:45:42;;;;;;;3.33;2.17;;;;;;;;;;4964118;28;20756;-83
2023/01/01 12:48:22;;;;;;;6.05;3.80;;;;;;;;;;4951182;28;20270;-84
2023/01/01 12:50:58;;;;;;;4.18;2.95;;;;;;;;;;4958474;28;20766;-84
2023/01/01 12:53:46;;;;;;;5.18;3.35;;;;;;;;;;4944342;28;20238;-83
2023/01/01 12:56:36;;;;;;;6.85;2.92;;;;;;;;;;4930025;28;20204;-84
2023/01/01 12:59:11;;;;;;;3.35;2.25;;;;;;;;;;4943172;28;20250;-86
2023/01/01 13:01:38;;;;;;;6.50;4.47;;;;;;;;;;4953250;28;20215;-85
2023/01/01 13:04:13;;;;;;;6.53;4.45;;;;;;;;;;4956239;28;20225;-86
2023/01/01 13:06:47;;;;;;;11.13;4.32;;;;;;;;;;4950578;28;20226;-84
2023/01/01 13:09:17;;;;;;;8.05;4.50;;;;;;;;;;4993501;28;20240;-86
2023/01/01 13:11:46;;;;;;;5.25;2.40;;;;;;;;;;4966914;28;20208;-85
2023/01/01 13:14:13;;;;;;;3.30;2.20;;;;;;;;;;4969852;28;20291;-85
2023/01/01 13:16:41;;;;;;;7.03;2.80;;;;;;;;;;4968795;28;20206;-85
2023/01/01 13:19:26;;;;;;;3.30;2.38;;;;;;;;;;4956298;28;20294;-84
2023/01/01 13:21:53;;;;;;;3.70;2.10;;;;;;;;;;4953314;28;20219;-86
2023/01/01 13:24:22;;;;;;;2.35;1.98;;;;;;;;;;4938228;28;20231;-84
2023/01/01 13:26:50;;;;;;;2.88;2.13;;;;;;;;;;4930481;28;20219;-82
2023/01/01 13:29:20;;;;;;;3.20;2.00;;;;;;;;;;4945035;28;20235;-83
2023/01/01 13:31:47;;;;;;;6.05;2.30;;;;;;;;;;4925314;28;20422;-85
2023/01/01 13:34:33;;;;;;;3.47;1.92;;;;;;;;;;4925251;28;20642;-81
2023/01/01 13:37:19;;;;;;;2.63;1.98;;;;;;;;;;4930582;28;20251;-80
2023/01/01 13:39:52;;;;;;;3.53;1.85;;;;;;;;;;4955220;28;20224;-84
2023/01/01 13:42:38;;;;;;;2.28;1.85;;;;;;;;;;4954974;28;20930;-85
2023/01/01 13:45:18;;;;;;;3.60;1.95;;;;;;;;;;4954264;28;20227;-80
2023/01/01 13:48:20;;;;;;;4.97;2.75;;;;;;;;;;4964130;28;20636;-79
2023/01/01 13:50:54;;;;;;;4.93;2.55;;;;;;;;;;4953719;28;20625;-84
2023/01/01 13:53:21;;;;;;;3.92;2.10;;;;;;;;;;4959908;28;20591;-83
2023/01/01 13:55:48;;;;;;;8.57;3.33;;;;;;;;;;4965119;28;20205;-79
2023/01/01 13:58:18;;;;;;;3.53;2.22;;;;;;;;;;4958442;28;21651;-83
2023/01/01 14:01:04;;;;;;;5.28;1.73;;;;;;;;;;4959545;28;20627;-81
2023/01/01 14:03:35;;;;;;;3.67;1.90;;;;;;;;;;4967920;28;20811;-87
2023/01/01 14:06:06;;;;;;;3.83;2.50;;;;;;;;;;4955785;28;20971;-80
2023/01/01 14:08:37;;;;;;;2.92;2.63;;;;;;;;;;4964090;28;20217;-80
2023/01/01 14:11:19;;;;;;;3.17;2.20;;;;;;;;;;4954633;28;20200;-78
2023/01/01 14:13:46;;;;;;;4.30;1.77;;;;;;;;;;4944009;28;20687;-82
2023/01/01 14:16:14;;;;;;;4.47;2.20;;;;;;;;;;4966349;28;20219;-84
2023/01/01 14:18:42;;;;;;;4.07;2.13;;;;;;;;;;4967302;28;20215;-82
2023/01/01 14:21:11;;;;;;;4.95;2.10;;;;;;;;;;4965128;28;20219;-80
2023/01/01 14:23:40;;;;;;;2.38;1.67;;;;;;;;;;4959391;28;20224;-85
2023/01/01 14:26:12;;;;;;;4.93;1.98;;;;;;;;;;4966999;28;20204;-80
2023/01/01 14:28:39;;;;;;;5.22;2.10;;;;;;;;;;4947102;28;20275;-78
2023/01/01 14:31:12;;;;;;;3.15;1.80;;;;;;;;;;4964406;28;20582;-85
2023/01/01 14:33:39;;;;;;;2.03;1.77;;;;;;;;;;4962054;28;20227;-82
2023/01/01 14:36:27;;;;;;;4.72;2.13;;;;;;;;;;4961461;28;20228;-84
2023/01/01 14:38:55;;;;;;;1.92;1.70;;;;;;;;;;4964454;28;20217;-83
2023/01/01 14:41:23;;;;;;;2.67;1.90;;;;;;;;;;4971122;28;20290;-84
2023/01/01 14:43:51;;;;;;;5.55;1.85;;;;;;;;;;4960094;28;20596;-83
2023/01/01 14:46:19;;;;;;;4.25;2.20;;;;;;;;;;4962058;28;20204;-80
2023/01/01 14:48:51;;;;;;;3.55;2.00;;;;;;;;;;4942401;28;20204;-83
2023/01/01 14:51:20;;;;;;;6.07;2.30;;;;;;;;;;4949587;28;20215;-81
2023/01/01 14:53:48;;;;;;;3.40;1.73;;;;;;;;;;4953343;28;20452;-77
2023/01/01 14:56:25;;;;;;;3.20;2.10;;;;;;;;;;4963145;28;20227;-78
2023/01/01 14:58:54;;;;;;;4.38;2.22;;;;;;;;;;4947980;28;20203;-82
2023/01/01 15:01:24;;;;;;;2.33;2.10;;;;;;;;;;4976070;28;20232;-76
2023/01/01 15:03:55;;;;;;;4.13;2.00;;;;;;;;;;4994791;28;20857;-80
2023/01/01 15:06:23;;;;;;;3.08;2.00;;;;;;;;;;4951319;28;20307;-80